createdAt,value
2022-08-22T00:00:56.453Z,12.50
2022-08-22T00:01:56.514Z,10.40
2022-08-22T00:02:47.979Z,14.60
2022-08-22T00:02:52.694Z,10.90
2022-08-22T00:02:59.525Z,12.80
2022-08-22T00:03:02.741Z,11.80
2022-08-22T00:03:06.413Z,12.50
2022-08-22T00:03:17.469Z,13.20
2022-08-22T00:03:57.444Z,10.20
2022-08-22T00:04:56.410Z,14.50
2022-08-22T00:05:56.399Z,12.90
2022-08-22T00:06:56.386Z,12.00
2022-08-22T00:07:56.437Z,12.00
2022-08-22T00:08:56.363Z,14.40
2022-08-22T00:09:56.356Z,13.50
2022-08-22T00:10:56.342Z,13.20
2022-08-22T00:11:56.333Z,10.30
2022-08-22T00:12:56.520Z,11.80
2022-08-22T00:14:01.842Z,10.50
2022-08-22T00:14:56.296Z,9.90
2022-08-22T00:15:56.285Z,11.80
2022-08-22T00:16:56.274Z,13.90
2022-08-22T00:17:56.281Z,12.00
2022-08-22T00:18:56.251Z,12.20
2022-08-22T00:19:56.240Z,14.20
2022-08-22T00:20:56.228Z,14.80
2022-08-22T00:21:56.217Z,12.70
2022-08-22T00:22:56.204Z,13.50
2022-08-22T00:23:56.195Z,12.80
2022-08-22T00:24:56.186Z,13.00
2022-08-22T00:25:56.176Z,10.70
2022-08-22T00:26:56.167Z,14.60
2022-08-22T00:27:56.226Z,10.20
2022-08-22T00:28:56.137Z,12.30
2022-08-22T00:29:56.129Z,11.40
2022-08-22T00:30:56.112Z,9.10
2022-08-22T00:31:56.108Z,11.30
2022-08-22T00:32:56.092Z,12.60
2022-08-22T00:33:56.082Z,10.60
2022-08-22T00:34:56.070Z,11.10
2022-08-22T00:35:56.060Z,12.20
2022-08-22T00:36:56.049Z,12.00
2022-08-22T00:37:56.038Z,12.70
2022-08-22T00:38:56.023Z,11.20
2022-08-22T00:39:56.057Z,10.60
2022-08-22T00:40:56.002Z,12.70
2022-08-22T00:41:55.994Z,12.20
2022-08-22T00:42:55.979Z,14.00
2022-08-22T00:43:55.969Z,12.90
2022-08-22T00:44:55.957Z,11.00
2022-08-22T00:45:55.975Z,13.50
2022-08-22T00:46:55.933Z,12.60
2022-08-22T00:47:55.991Z,13.10
2022-08-22T00:48:55.911Z,11.40
2022-08-22T00:49:55.902Z,16.30
2022-08-22T00:50:55.890Z,14.20
2022-08-22T00:51:55.880Z,12.20
2022-08-22T00:52:56.291Z,10.10
2022-08-22T00:53:55.858Z,13.60
2022-08-22T00:54:55.848Z,11.20
2022-08-22T00:55:55.835Z,11.10
2022-08-22T00:56:55.822Z,11.40
2022-08-22T00:57:55.882Z,12.10
2022-08-22T00:58:55.800Z,9.80
2022-08-22T00:59:55.789Z,13.40
2022-08-22T01:00:55.859Z,13.10
2022-08-22T01:01:55.764Z,12.80
2022-08-22T01:02:55.751Z,11.80
2022-08-22T01:03:55.741Z,12.50
2022-08-22T01:04:55.983Z,12.50
2022-08-22T01:05:55.722Z,11.80
2022-08-22T01:06:55.707Z,11.10
2022-08-22T01:07:55.780Z,15.30
2022-08-22T01:08:55.684Z,12.10
2022-08-22T01:09:55.675Z,13.60
2022-08-22T01:10:55.664Z,14.80
2022-08-22T01:11:55.653Z,12.60
2022-08-22T01:12:55.643Z,11.90
2022-08-22T01:13:55.629Z,12.30
2022-08-22T01:14:55.619Z,11.50
2022-08-22T01:15:55.607Z,14.00
2022-08-22T01:16:55.597Z,12.80
2022-08-22T01:17:55.695Z,12.10
2022-08-22T01:18:55.571Z,12.90
2022-08-22T01:19:55.563Z,12.40
2022-08-22T01:20:55.551Z,11.50
2022-08-22T01:21:55.541Z,13.50
2022-08-22T01:22:55.529Z,13.90
2022-08-22T01:23:55.518Z,12.20
2022-08-22T01:24:55.507Z,11.20
2022-08-22T01:25:55.496Z,9.20
2022-08-22T01:26:55.482Z,14.70
2022-08-22T01:27:55.522Z,11.10
2022-08-22T01:28:55.466Z,13.30
2022-08-22T01:29:55.452Z,12.30
2022-08-22T01:30:55.437Z,13.10
2022-08-22T01:31:55.427Z,14.10
2022-08-22T01:32:57.109Z,8.80
2022-08-22T01:33:55.405Z,13.00
2022-08-22T01:34:55.389Z,13.00
2022-08-22T01:35:55.380Z,10.70
2022-08-22T01:36:55.371Z,13.30
2022-08-22T01:37:55.403Z,14.60
2022-08-22T01:38:55.346Z,16.10
2022-08-22T01:39:55.411Z,14.40
2022-08-22T01:40:55.325Z,15.10
2022-08-22T01:41:55.315Z,11.30
2022-08-22T01:42:55.301Z,11.20
2022-08-22T01:44:00.500Z,10.30
2022-08-22T01:44:55.278Z,11.70
2022-08-22T01:45:55.271Z,13.50
2022-08-22T01:46:55.256Z,12.10
2022-08-22T01:47:55.256Z,13.90
2022-08-22T01:48:55.233Z,15.50
2022-08-22T01:49:55.227Z,12.30
2022-08-22T01:50:55.211Z,15.20
2022-08-22T01:51:55.203Z,13.50
2022-08-22T01:52:55.188Z,11.10
2022-08-22T01:53:55.177Z,10.80
2022-08-22T01:54:55.170Z,11.60
2022-08-22T01:55:55.155Z,13.90
2022-08-22T01:56:55.144Z,10.80
2022-08-22T01:57:55.311Z,12.90
2022-08-22T01:58:55.123Z,10.90
2022-08-22T01:59:55.111Z,12.70
2022-08-22T02:00:55.184Z,11.70
2022-08-22T02:01:55.289Z,9.30
2022-08-22T02:02:55.078Z,12.20
2022-08-22T02:03:55.065Z,12.40
2022-08-22T02:04:55.053Z,15.00
2022-08-22T02:05:55.044Z,13.40
2022-08-22T02:06:55.029Z,11.90
2022-08-22T02:07:55.021Z,11.30
2022-08-22T02:08:55.008Z,11.60
2022-08-22T02:09:55.000Z,10.70
2022-08-22T02:10:54.989Z,15.90
2022-08-22T02:11:54.975Z,14.40
2022-08-22T02:12:54.963Z,14.40
2022-08-22T02:13:54.956Z,14.40
2022-08-22T02:14:54.943Z,15.80
2022-08-22T02:15:54.929Z,13.70
2022-08-22T02:16:54.918Z,14.10
2022-08-22T02:17:54.908Z,13.90
2022-08-22T02:18:54.895Z,14.20
2022-08-22T02:19:54.888Z,11.90
2022-08-22T02:20:54.870Z,12.60
2022-08-22T02:21:54.863Z,12.80
2022-08-22T02:22:54.848Z,15.40
2022-08-22T02:23:55.510Z,14.20
2022-08-22T02:24:54.827Z,16.90
2022-08-22T02:25:54.820Z,12.60
2022-08-22T02:26:54.803Z,14.10
2022-08-22T02:27:54.886Z,12.70
2022-08-22T02:28:57.077Z,14.80
2022-08-22T02:29:54.774Z,13.70
2022-08-22T02:30:54.758Z,17.50
2022-08-22T02:31:54.799Z,13.20
2022-08-22T02:32:54.737Z,14.10
2022-08-22T02:33:54.726Z,13.60
2022-08-22T02:34:54.714Z,13.50
2022-08-22T02:35:54.704Z,14.40
2022-08-22T02:36:54.696Z,15.90
2022-08-22T02:37:54.740Z,16.30
2022-08-22T02:38:54.669Z,13.40
2022-08-22T02:39:54.707Z,16.80
2022-08-22T02:40:54.647Z,14.00
2022-08-22T02:41:54.642Z,13.10
2022-08-22T02:42:54.625Z,12.20
2022-08-22T02:43:54.615Z,13.50
2022-08-22T02:44:54.601Z,15.00
2022-08-22T02:45:54.592Z,12.70
2022-08-22T02:46:54.584Z,14.00
2022-08-22T02:47:54.612Z,14.30
2022-08-22T02:48:54.556Z,13.70
2022-08-22T02:49:54.549Z,14.80
2022-08-22T02:50:54.536Z,11.20
2022-08-22T02:51:54.527Z,19.90
2022-08-22T02:52:54.532Z,13.40
2022-08-22T02:53:54.711Z,16.40
2022-08-22T02:54:54.488Z,14.00
2022-08-22T02:55:54.484Z,11.80
2022-08-22T02:56:54.477Z,13.40
2022-08-22T02:57:54.457Z,14.30
2022-08-22T02:58:57.005Z,12.90
2022-08-22T02:59:54.434Z,13.70
2022-08-22T03:00:54.482Z,14.40
2022-08-22T03:01:54.424Z,16.90
2022-08-22T03:02:54.432Z,15.00
2022-08-22T03:03:54.570Z,12.80
2022-08-22T03:04:54.375Z,15.90
2022-08-22T03:05:57.862Z,15.60
2022-08-22T03:06:55.381Z,16.90
2022-08-22T03:07:54.348Z,12.60
2022-08-22T03:08:54.333Z,13.70
2022-08-22T03:09:54.323Z,15.50
2022-08-22T03:10:54.312Z,17.10
2022-08-22T03:11:54.298Z,12.20
2022-08-22T03:12:57.393Z,14.90
2022-08-22T03:13:54.273Z,10.90
2022-08-22T03:14:54.265Z,14.90
2022-08-22T03:15:54.252Z,13.90
2022-08-22T03:16:54.241Z,15.80
2022-08-22T03:17:54.229Z,11.60
2022-08-22T03:18:54.221Z,17.70
2022-08-22T03:19:54.209Z,18.10
2022-08-22T03:20:54.194Z,12.70
2022-08-22T03:21:54.188Z,18.20
2022-08-22T03:22:54.175Z,16.70
2022-08-22T03:23:54.160Z,14.80
2022-08-22T03:24:54.151Z,15.30
2022-08-22T03:25:54.137Z,15.70
2022-08-22T03:26:54.129Z,17.90
2022-08-22T03:27:54.115Z,14.70
2022-08-22T03:28:59.682Z,16.50
2022-08-22T03:29:55.121Z,16.00
2022-08-22T03:30:54.086Z,14.90
2022-08-22T03:31:54.070Z,16.10
2022-08-22T03:32:54.060Z,12.60
2022-08-22T03:33:54.048Z,14.40
2022-08-22T03:34:54.040Z,19.40
2022-08-22T03:35:54.024Z,15.60
2022-08-22T03:36:54.020Z,13.00
2022-08-22T03:37:54.007Z,13.80
2022-08-22T03:38:53.993Z,13.80
2022-08-22T03:39:54.039Z,18.20
2022-08-22T03:40:53.975Z,11.30
2022-08-22T03:41:53.961Z,15.40
2022-08-22T03:42:53.948Z,16.30
2022-08-22T03:43:53.934Z,20.40
2022-08-22T03:44:53.926Z,13.20
2022-08-22T03:45:53.911Z,13.80
2022-08-22T03:46:53.902Z,12.50
2022-08-22T03:47:53.889Z,10.80
2022-08-22T03:48:53.879Z,14.30
2022-08-22T03:49:57.651Z,12.90
2022-08-22T03:50:54.478Z,14.40
2022-08-22T03:51:53.845Z,16.20
2022-08-22T03:52:53.835Z,14.20
2022-08-22T03:53:53.821Z,15.80
2022-08-22T03:54:53.811Z,11.20
2022-08-22T03:55:53.799Z,14.90
2022-08-22T03:56:54.079Z,12.80
2022-08-22T03:57:54.841Z,12.60
2022-08-22T03:58:53.765Z,18.40
2022-08-22T03:59:53.754Z,12.30
2022-08-22T04:00:56.064Z,14.00
2022-08-22T04:01:53.731Z,14.60
2022-08-22T04:02:53.721Z,15.10
2022-08-22T04:03:53.714Z,17.90
2022-08-22T04:04:53.706Z,15.70
2022-08-22T04:05:53.721Z,15.30
2022-08-22T04:06:56.516Z,15.10
2022-08-22T04:07:53.709Z,16.80
2022-08-22T04:08:53.767Z,15.20
2022-08-22T04:09:53.771Z,15.50
2022-08-22T04:10:53.794Z,17.00
2022-08-22T04:11:53.699Z,13.50
2022-08-22T04:12:53.610Z,11.90
2022-08-22T04:13:53.599Z,17.90
2022-08-22T04:14:53.587Z,15.20
2022-08-22T04:15:53.574Z,17.30
2022-08-22T04:16:53.565Z,18.70
2022-08-22T04:17:53.565Z,14.70
2022-08-22T04:18:53.547Z,16.70
2022-08-22T04:19:53.533Z,12.60
2022-08-22T04:20:53.521Z,16.60
2022-08-22T04:21:53.509Z,15.80
2022-08-22T04:22:53.498Z,14.20
2022-08-22T04:23:53.485Z,14.10
2022-08-22T04:24:53.475Z,13.70
2022-08-22T04:25:53.463Z,14.60
2022-08-22T04:26:53.461Z,16.30
2022-08-22T04:27:53.446Z,14.20
2022-08-22T04:28:53.437Z,16.20
2022-08-22T04:29:53.419Z,14.20
2022-08-22T04:30:53.412Z,14.90
2022-08-22T04:31:53.396Z,15.70
2022-08-22T04:32:53.387Z,16.00
2022-08-22T04:33:53.379Z,17.30
2022-08-22T04:34:53.367Z,16.50
2022-08-22T04:35:53.355Z,16.30
2022-08-22T04:36:53.342Z,19.90
2022-08-22T04:37:53.337Z,18.80
2022-08-22T04:38:53.324Z,15.70
2022-08-22T04:39:53.430Z,14.90
2022-08-22T04:40:53.299Z,20.70
2022-08-22T04:41:53.291Z,15.20
2022-08-22T04:42:53.277Z,16.20
2022-08-22T04:43:53.264Z,16.90
2022-08-22T04:44:53.256Z,19.40
2022-08-22T04:45:53.245Z,15.50
2022-08-22T04:46:53.235Z,13.30
2022-08-22T04:47:54.298Z,14.80
2022-08-22T04:48:53.209Z,15.20
2022-08-22T04:49:53.222Z,17.10
2022-08-22T04:50:53.191Z,18.50
2022-08-22T04:51:53.175Z,18.10
2022-08-22T04:52:53.168Z,13.70
2022-08-22T04:53:53.159Z,15.70
2022-08-22T04:54:53.144Z,14.60
2022-08-22T04:55:53.134Z,14.90
2022-08-22T04:56:53.121Z,17.10
2022-08-22T04:57:53.233Z,17.80
2022-08-22T04:58:53.101Z,11.60
2022-08-22T04:59:53.088Z,16.70
2022-08-22T05:00:53.091Z,14.30
2022-08-22T05:01:53.150Z,14.70
2022-08-22T05:02:53.058Z,14.00
2022-08-22T05:03:53.044Z,14.20
2022-08-22T05:04:53.035Z,16.80
2022-08-22T05:05:53.019Z,17.90
2022-08-22T05:06:53.013Z,16.20
2022-08-22T05:07:53.038Z,15.70
2022-08-22T05:08:53.636Z,14.60
2022-08-22T05:09:52.979Z,19.90
2022-08-22T05:10:52.973Z,15.80
2022-08-22T05:11:52.978Z,13.50
2022-08-22T05:12:52.947Z,19.80
2022-08-22T05:13:52.931Z,13.30
2022-08-22T05:14:54.538Z,17.30
2022-08-22T05:15:52.908Z,15.60
2022-08-22T05:16:52.902Z,15.80
2022-08-22T05:17:53.699Z,15.40
2022-08-22T05:18:52.877Z,14.50
2022-08-22T05:19:52.865Z,16.60
2022-08-22T05:20:52.855Z,18.30
2022-08-22T05:21:52.841Z,16.40
2022-08-22T05:22:52.874Z,12.40
2022-08-22T05:23:52.822Z,15.80
2022-08-22T05:24:52.813Z,18.20
2022-08-22T05:25:52.806Z,19.80
2022-08-22T05:26:52.788Z,17.10
2022-08-22T05:27:53.303Z,13.30
2022-08-22T05:28:53.525Z,17.20
2022-08-22T05:29:52.750Z,13.20
2022-08-22T05:30:52.743Z,16.60
2022-08-22T05:31:52.729Z,12.20
2022-08-22T05:32:52.732Z,18.80
2022-08-22T05:33:52.739Z,14.90
2022-08-22T05:34:52.696Z,17.10
2022-08-22T05:35:57.746Z,12.40
2022-08-22T05:36:52.679Z,16.00
2022-08-22T05:37:52.682Z,18.10
2022-08-22T05:38:52.650Z,13.60
2022-08-22T05:39:52.715Z,13.40
2022-08-22T05:40:52.633Z,16.40
2022-08-22T05:41:52.617Z,18.50
2022-08-22T05:42:52.615Z,15.10
2022-08-22T05:43:52.622Z,19.40
2022-08-22T05:44:52.599Z,14.40
2022-08-22T05:45:52.576Z,14.20
2022-08-22T05:46:52.564Z,21.10
2022-08-22T05:47:52.618Z,16.90
2022-08-22T05:48:52.539Z,14.60
2022-08-22T05:49:52.780Z,16.40
2022-08-22T05:50:52.523Z,14.20
2022-08-22T05:51:52.506Z,16.10
2022-08-22T05:52:52.493Z,15.80
2022-08-22T05:53:52.481Z,17.60
2022-08-22T05:54:52.485Z,16.50
2022-08-22T05:55:52.478Z,15.50
2022-08-22T05:56:52.450Z,13.70
2022-08-22T05:57:52.488Z,15.20
2022-08-22T05:58:52.427Z,13.40
2022-08-22T05:59:52.418Z,18.30
2022-08-22T06:00:52.410Z,18.60
2022-08-22T06:01:52.431Z,14.60
2022-08-22T06:02:52.411Z,15.90
2022-08-22T06:03:52.373Z,16.30
2022-08-22T06:04:52.370Z,12.70
2022-08-22T06:05:52.365Z,14.80
2022-08-22T06:06:52.403Z,14.10
2022-08-22T06:07:52.481Z,13.10
2022-08-22T06:08:52.330Z,13.40
2022-08-22T06:09:52.313Z,14.50
2022-08-22T06:10:52.298Z,13.90
2022-08-22T06:11:52.288Z,14.20
2022-08-22T06:12:52.276Z,14.00
2022-08-22T06:13:52.261Z,15.90
2022-08-22T06:14:52.255Z,16.40
2022-08-22T06:15:52.245Z,13.20
2022-08-22T06:16:52.233Z,17.80
2022-08-22T06:17:52.237Z,14.10
2022-08-22T06:18:52.207Z,17.10
2022-08-22T06:19:52.194Z,14.50
2022-08-22T06:20:52.235Z,13.40
2022-08-22T06:21:52.169Z,16.90
2022-08-22T06:22:52.161Z,15.90
2022-08-22T06:23:52.149Z,13.30
2022-08-22T06:24:52.144Z,14.60
2022-08-22T06:25:52.125Z,15.10
2022-08-22T06:26:52.116Z,15.30
2022-08-22T06:27:52.112Z,14.00
2022-08-22T06:28:55.620Z,16.70
2022-08-22T06:29:52.082Z,12.20
2022-08-22T06:30:52.080Z,18.40
2022-08-22T06:31:52.065Z,14.00
2022-08-22T06:32:59.219Z,12.90
2022-08-22T06:33:52.043Z,14.90
2022-08-22T06:34:52.228Z,17.00
2022-08-22T06:35:52.015Z,13.40
2022-08-22T06:36:52.005Z,13.80
2022-08-22T06:37:51.996Z,18.10
2022-08-22T06:38:52.002Z,10.70
2022-08-22T06:39:52.041Z,14.30
2022-08-22T06:40:51.963Z,17.10
2022-08-22T06:41:51.951Z,13.60
2022-08-22T06:42:51.947Z,16.60
2022-08-22T06:43:51.931Z,13.00
2022-08-22T06:44:51.918Z,14.40
2022-08-22T06:45:51.903Z,15.40
2022-08-22T06:46:51.897Z,12.30
2022-08-22T06:47:53.564Z,10.80
2022-08-22T06:48:51.873Z,14.40
2022-08-22T06:49:51.862Z,12.90
2022-08-22T06:50:51.880Z,10.30
2022-08-22T06:51:51.837Z,12.20
2022-08-22T06:52:51.830Z,12.60
2022-08-22T06:53:51.837Z,10.00
2022-08-22T06:54:51.806Z,10.90
2022-08-22T06:55:51.795Z,13.00
2022-08-22T06:56:51.786Z,11.10
2022-08-22T06:57:51.772Z,14.60
2022-08-22T06:58:51.766Z,13.40
2022-08-22T06:59:51.755Z,10.60
2022-08-22T07:01:11.850Z,17.00
2022-08-22T07:01:51.865Z,12.70
2022-08-22T07:02:51.720Z,13.20
2022-08-22T07:03:51.708Z,15.50
2022-08-22T07:04:51.698Z,14.60
2022-08-22T07:05:51.685Z,13.00
2022-08-22T07:06:51.676Z,12.20
2022-08-22T07:07:51.663Z,11.90
2022-08-22T07:08:51.653Z,13.10
2022-08-22T07:09:51.643Z,13.50
2022-08-22T07:10:51.631Z,14.20
2022-08-22T07:11:51.648Z,11.30
2022-08-22T07:12:51.627Z,12.60
2022-08-22T07:13:51.596Z,11.40
2022-08-22T07:14:51.588Z,14.80
2022-08-22T07:15:51.577Z,12.50
2022-08-22T07:16:51.565Z,12.10
2022-08-22T07:17:51.556Z,10.80
2022-08-22T07:18:51.546Z,15.00
2022-08-22T07:19:51.538Z,14.20
2022-08-22T07:20:51.522Z,12.30
2022-08-22T07:21:51.513Z,15.50
2022-08-22T07:22:54.026Z,11.20
2022-08-22T07:23:51.524Z,10.00
2022-08-22T07:24:51.479Z,11.80
2022-08-22T07:25:51.470Z,13.00
2022-08-22T07:26:51.456Z,10.80
2022-08-22T07:27:52.528Z,13.80
2022-08-22T07:28:57.936Z,12.70
2022-08-22T07:29:51.425Z,9.70
2022-08-22T07:30:51.414Z,11.70
2022-08-22T07:31:51.407Z,11.30
2022-08-22T07:32:51.405Z,10.90
2022-08-22T07:33:51.407Z,12.40
2022-08-22T07:34:51.377Z,14.60
2022-08-22T07:35:53.772Z,11.60
2022-08-22T07:36:51.350Z,13.90
2022-08-22T07:37:51.339Z,10.30
2022-08-22T07:38:51.325Z,12.60
2022-08-22T07:39:51.388Z,11.10
2022-08-22T07:40:51.306Z,12.80
2022-08-22T07:41:51.298Z,11.50
2022-08-22T07:42:51.287Z,12.00
2022-08-22T07:43:51.276Z,9.80
2022-08-22T07:44:51.282Z,10.40
2022-08-22T07:45:51.272Z,13.00
2022-08-22T07:46:51.243Z,11.00
2022-08-22T07:47:51.235Z,15.30
2022-08-22T07:49:08.247Z,12.60
2022-08-22T07:49:51.212Z,11.50
2022-08-22T07:50:51.206Z,11.20
2022-08-22T07:51:51.190Z,11.00
2022-08-22T07:52:51.178Z,12.00
2022-08-22T07:53:51.169Z,12.10
2022-08-22T07:54:51.160Z,13.70
2022-08-22T07:55:51.159Z,12.30
2022-08-22T07:56:51.148Z,10.00
2022-08-22T07:57:51.127Z,12.00
2022-08-22T07:58:51.122Z,9.70
2022-08-22T07:59:51.105Z,12.80
2022-08-22T08:00:51.092Z,9.20
2022-08-22T08:01:51.177Z,10.70
2022-08-22T08:02:51.071Z,10.30
2022-08-22T08:03:51.065Z,12.20
2022-08-22T08:04:51.049Z,12.30
2022-08-22T08:05:51.043Z,10.80
2022-08-22T08:06:51.051Z,10.00
2022-08-22T08:07:51.035Z,12.50
2022-08-22T08:08:51.016Z,12.80
2022-08-22T08:09:51.000Z,10.50
2022-08-22T08:10:50.992Z,10.70
2022-08-22T08:11:50.983Z,10.80
2022-08-22T08:12:56.156Z,13.30
2022-08-22T08:13:51.992Z,9.20
2022-08-22T08:14:50.949Z,9.70
2022-08-22T08:15:50.937Z,9.50
2022-08-22T08:16:50.926Z,11.00
2022-08-22T08:17:50.920Z,7.90
2022-08-22T08:18:50.907Z,10.20
2022-08-22T08:19:50.914Z,10.60
2022-08-22T08:20:51.062Z,10.20
2022-08-22T08:21:50.873Z,8.00
2022-08-22T08:22:50.860Z,9.80
2022-08-22T08:23:50.851Z,10.50
2022-08-22T08:24:50.837Z,10.00
2022-08-22T08:25:53.445Z,10.20
2022-08-22T08:26:50.819Z,8.00
2022-08-22T08:27:50.812Z,9.70
2022-08-22T08:28:50.801Z,9.10
2022-08-22T08:29:50.811Z,11.20
2022-08-22T08:30:50.779Z,8.70
2022-08-22T08:31:50.783Z,10.70
2022-08-22T08:32:50.766Z,10.00
2022-08-22T08:33:50.748Z,9.50
2022-08-22T08:34:50.735Z,10.30
2022-08-22T08:36:03.412Z,10.10
2022-08-22T08:36:50.717Z,12.20
2022-08-22T08:37:50.709Z,13.40
2022-08-22T08:38:50.698Z,10.00
2022-08-22T08:39:50.847Z,9.50
2022-08-22T08:40:50.691Z,11.70
2022-08-22T08:41:50.665Z,11.20
2022-08-22T08:42:50.661Z,10.70
2022-08-22T08:43:50.646Z,10.10
2022-08-22T08:44:50.635Z,10.00
2022-08-22T08:45:50.630Z,10.40
2022-08-22T08:46:55.463Z,10.90
2022-08-22T08:47:50.607Z,10.80
2022-08-22T08:48:50.592Z,9.50
2022-08-22T08:49:50.655Z,10.20
2022-08-22T08:50:50.594Z,11.70
2022-08-22T08:51:50.576Z,11.50
2022-08-22T08:52:53.069Z,11.50
2022-08-22T08:53:50.543Z,10.80
2022-08-22T08:54:50.529Z,13.00
2022-08-22T08:55:50.524Z,11.30
2022-08-22T08:56:50.513Z,9.80
2022-08-22T08:57:50.501Z,11.60
2022-08-22T08:58:50.864Z,11.20
2022-08-22T08:59:50.483Z,9.70
2022-08-22T09:00:50.570Z,9.40
2022-08-22T09:01:50.471Z,10.80
2022-08-22T09:02:50.499Z,12.20
2022-08-22T09:03:51.275Z,12.60
2022-08-22T09:04:50.436Z,10.60
2022-08-22T09:05:50.424Z,11.30
2022-08-22T09:06:52.781Z,11.10
2022-08-22T09:07:51.446Z,11.90
2022-08-22T09:08:55.542Z,9.70
2022-08-22T09:10:51.401Z,9.80
2022-08-22T09:11:50.361Z,10.10
2022-08-22T09:12:56.508Z,10.70
2022-08-22T09:13:50.386Z,12.90
2022-08-22T09:14:50.363Z,9.90
2022-08-22T09:16:51.898Z,11.30
2022-08-22T09:17:50.303Z,9.20
2022-08-22T09:18:50.291Z,10.40
2022-08-22T09:19:50.280Z,9.20
2022-08-22T09:20:50.272Z,9.20
2022-08-22T09:21:50.265Z,10.50
2022-08-22T09:22:50.699Z,7.90
2022-08-22T09:23:53.280Z,11.30
2022-08-22T09:24:50.297Z,12.20
2022-08-22T09:25:50.239Z,10.60
2022-08-22T09:26:50.213Z,9.60
2022-08-22T09:27:50.205Z,9.10
2022-08-22T09:28:50.197Z,9.40
2022-08-22T09:30:54.197Z,7.60
2022-08-22T09:31:52.073Z,8.00
2022-08-22T09:32:50.150Z,10.30
2022-08-22T09:33:50.141Z,10.50
2022-08-22T09:34:50.130Z,9.80
2022-08-22T09:35:50.124Z,9.90
2022-08-22T09:36:50.138Z,8.90
2022-08-22T09:37:50.103Z,8.60
2022-08-22T09:38:50.093Z,9.80
2022-08-22T09:39:50.167Z,9.90
2022-08-22T09:40:16.318Z,10.80
2022-08-22T09:40:16.383Z,9.30
2022-08-22T09:40:16.764Z,8.40
2022-08-22T09:40:50.073Z,8.40
2022-08-22T09:41:51.748Z,8.80
2022-08-22T09:42:50.050Z,8.50
2022-08-22T09:43:50.046Z,9.80
2022-08-22T09:44:50.025Z,11.40
2022-08-22T09:45:50.239Z,12.00
2022-08-22T09:46:50.018Z,12.40
2022-08-22T09:47:50.024Z,8.80
2022-08-22T09:48:49.990Z,8.30
2022-08-22T09:49:49.988Z,8.40
2022-08-22T09:50:52.601Z,9.90
2022-08-22T09:51:49.969Z,8.20
2022-08-22T09:52:49.953Z,10.70
2022-08-22T09:53:49.945Z,9.50
2022-08-22T09:54:49.935Z,8.30
2022-08-22T09:55:50.174Z,10.50
2022-08-22T09:56:49.915Z,9.90
2022-08-22T09:57:49.925Z,10.30
2022-08-22T09:58:49.898Z,8.80
2022-08-22T09:59:49.909Z,8.60
2022-08-22T10:00:55.177Z,8.10
2022-08-22T10:01:49.868Z,9.80
2022-08-22T10:02:50.383Z,8.70
2022-08-22T10:03:49.847Z,12.60
2022-08-22T10:04:49.837Z,10.90
2022-08-22T10:05:49.826Z,11.60
2022-08-22T10:06:49.817Z,8.80
2022-08-22T10:07:52.730Z,9.30
2022-08-22T10:08:49.806Z,10.30
2022-08-22T10:09:49.818Z,8.90
2022-08-22T10:10:49.818Z,10.60
2022-08-22T10:11:49.773Z,9.00
2022-08-22T10:12:49.761Z,10.50
2022-08-22T10:13:57.257Z,10.50
2022-08-22T10:14:51.146Z,8.30
2022-08-22T10:15:49.733Z,10.10
2022-08-22T10:16:49.721Z,11.10
2022-08-22T10:17:49.713Z,10.60
2022-08-22T10:18:52.878Z,8.80
2022-08-22T10:19:49.692Z,9.30
2022-08-22T10:20:49.690Z,9.10
2022-08-22T10:21:49.690Z,10.30
2022-08-22T10:22:49.662Z,11.10
2022-08-22T10:23:49.657Z,8.90
2022-08-22T10:24:49.644Z,9.80
2022-08-22T10:25:49.635Z,9.00
2022-08-22T10:26:49.625Z,9.20
2022-08-22T10:27:49.616Z,10.20
2022-08-22T10:28:49.603Z,8.40
2022-08-22T10:29:49.597Z,8.80
2022-08-22T10:30:49.586Z,8.30
2022-08-22T10:31:58.909Z,8.60
2022-08-22T10:32:50.593Z,9.80
2022-08-22T10:33:49.564Z,9.60
2022-08-22T10:34:49.548Z,9.40
2022-08-22T10:35:49.541Z,9.40
2022-08-22T10:36:49.528Z,9.10
2022-08-22T10:37:50.385Z,11.50
2022-08-22T10:38:49.506Z,8.20
2022-08-22T10:39:49.523Z,8.60
2022-08-22T10:40:49.486Z,7.40
2022-08-22T10:41:49.478Z,10.10
2022-08-22T10:42:49.463Z,11.00
2022-08-22T10:43:49.485Z,8.60
2022-08-22T10:44:50.466Z,9.30
2022-08-22T10:45:49.434Z,9.80
2022-08-22T10:46:49.420Z,9.00
2022-08-22T10:47:49.414Z,12.40
2022-08-22T10:48:49.409Z,9.90
2022-08-22T10:49:51.292Z,10.60
2022-08-22T10:50:49.382Z,10.30
2022-08-22T10:51:49.376Z,10.50
2022-08-22T10:52:49.366Z,10.30
2022-08-22T10:53:49.359Z,8.20
2022-08-22T10:54:49.383Z,8.10
2022-08-22T10:55:49.352Z,9.60
2022-08-22T10:56:49.331Z,9.10
2022-08-22T10:57:52.688Z,7.70
2022-08-22T10:58:49.311Z,7.80
2022-08-22T10:59:49.311Z,8.60
2022-08-22T11:00:49.981Z,9.10
2022-08-22T11:01:49.429Z,11.00
2022-08-22T11:02:49.391Z,7.80
2022-08-22T11:03:49.376Z,11.20
2022-08-22T11:04:49.382Z,8.90
2022-08-22T11:05:50.940Z,11.40
2022-08-22T11:06:49.280Z,7.40
2022-08-22T11:07:50.275Z,8.50
2022-08-22T11:08:49.210Z,9.20
2022-08-22T11:09:49.202Z,8.30
2022-08-22T11:10:49.203Z,9.10
2022-08-22T11:11:49.180Z,9.90
2022-08-22T11:12:49.169Z,7.80
2022-08-22T11:13:49.736Z,10.80
2022-08-22T11:14:49.152Z,8.10
2022-08-22T11:15:49.142Z,13.40
2022-08-22T11:16:55.236Z,8.90
2022-08-22T11:17:53.983Z,10.50
2022-08-22T11:18:51.490Z,8.70
2022-08-22T11:19:49.134Z,9.90
2022-08-22T11:20:49.089Z,9.90
2022-08-22T11:21:50.878Z,10.00
2022-08-22T11:22:49.071Z,9.80
2022-08-22T11:23:49.059Z,9.40
2022-08-22T11:24:55.724Z,7.10
2022-08-22T11:25:52.403Z,6.80
2022-08-22T11:26:49.029Z,11.20
2022-08-22T11:27:49.025Z,8.90
2022-08-22T11:28:49.024Z,9.80
2022-08-22T11:29:49.008Z,8.90
2022-08-22T11:30:50.386Z,8.50
2022-08-22T11:31:51.485Z,9.60
2022-08-22T11:32:48.966Z,13.90
2022-08-22T11:33:48.959Z,9.10
2022-08-22T11:34:48.945Z,8.20
2022-08-22T11:35:48.932Z,9.60
2022-08-22T11:36:50.235Z,8.00
2022-08-22T11:37:48.915Z,8.40
2022-08-22T11:38:49.930Z,8.70
2022-08-22T11:39:48.957Z,8.00
2022-08-22T11:40:48.931Z,7.30
2022-08-22T11:41:52.500Z,6.60
2022-08-22T11:42:48.867Z,12.20
2022-08-22T11:43:48.853Z,7.50
2022-08-22T11:44:50.961Z,9.60
2022-08-22T11:45:48.830Z,7.30
2022-08-22T11:46:48.824Z,6.40
2022-08-22T11:47:48.812Z,7.20
2022-08-22T11:48:48.856Z,8.50
2022-08-22T11:49:49.106Z,7.70
2022-08-22T11:50:48.793Z,7.80
2022-08-22T11:51:49.537Z,9.90
2022-08-22T11:52:51.684Z,7.80
2022-08-22T11:53:48.750Z,9.40
2022-08-22T11:54:48.743Z,8.70
2022-08-22T11:55:48.735Z,8.20
2022-08-22T11:56:48.722Z,9.20
2022-08-22T11:57:48.714Z,8.10
2022-08-22T11:58:48.704Z,6.80
2022-08-22T11:59:48.689Z,8.80
2022-08-22T12:00:48.680Z,10.70
2022-08-22T12:01:48.734Z,7.60
2022-08-22T12:02:48.684Z,8.30
2022-08-22T12:03:55.886Z,7.50
2022-08-22T12:04:49.664Z,8.40
2022-08-22T12:05:48.624Z,8.90
2022-08-22T12:06:49.733Z,6.40
2022-08-22T12:07:50.608Z,8.20
2022-08-22T12:08:48.593Z,8.30
2022-08-22T12:09:48.585Z,11.00
2022-08-22T12:10:48.576Z,8.00
2022-08-22T12:11:48.568Z,6.80
2022-08-22T12:12:48.554Z,8.80
2022-08-22T12:13:48.552Z,7.70
2022-08-22T12:14:48.552Z,6.10
2022-08-22T12:15:53.748Z,6.80
2022-08-22T12:16:48.511Z,7.80
2022-08-22T12:17:51.136Z,8.80
2022-08-22T12:18:52.959Z,8.30
2022-08-22T12:20:12.702Z,9.70
2022-08-22T12:20:49.507Z,9.60
2022-08-22T12:21:49.589Z,7.00
2022-08-22T12:22:49.793Z,8.10
2022-08-22T12:23:49.294Z,7.30
2022-08-22T12:24:48.451Z,7.30
2022-08-22T12:25:48.449Z,7.80
2022-08-22T12:26:48.409Z,8.40
2022-08-22T12:27:50.630Z,7.60
2022-08-22T12:28:48.390Z,7.20
2022-08-22T12:29:48.378Z,7.60
2022-08-22T12:30:48.367Z,8.80
2022-08-22T12:31:48.357Z,7.80
2022-08-22T12:32:48.973Z,6.00
2022-08-22T12:33:48.379Z,8.90
2022-08-22T12:34:48.368Z,8.20
2022-08-22T12:35:48.319Z,7.90
2022-08-22T12:36:48.336Z,5.80
2022-08-22T12:38:03.032Z,8.40
2022-08-22T12:38:49.316Z,6.70
2022-08-22T12:39:48.346Z,7.70
2022-08-22T12:40:48.267Z,6.30
2022-08-22T12:41:48.411Z,8.30
2022-08-22T12:42:48.247Z,7.70
2022-08-22T12:43:49.612Z,7.00
2022-08-22T12:44:48.226Z,8.20
2022-08-22T12:45:50.768Z,6.20
2022-08-22T12:46:48.218Z,8.00
2022-08-22T12:47:48.192Z,7.60
2022-08-22T12:48:48.182Z,6.40
2022-08-22T12:49:49.956Z,7.50
2022-08-22T12:50:48.163Z,8.50
2022-08-22T12:51:48.153Z,8.20
2022-08-22T12:52:48.142Z,6.40
2022-08-22T12:53:48.130Z,8.10
2022-08-22T12:54:48.118Z,7.80